sensor_id;sensor_type;location;lat;lon;timestamp;temperature;humidity
45983;DHT22;31711;47.158;7.346;2023-05-18T00:00:09;8.40;99.90
45983;DHT22;31711;47.158;7.346;2023-05-18T00:02:39;8.40;99.90
45983;DHT22;31711;47.158;7.346;2023-05-18T00:05:06;8.30;99.90
45983;DHT22;31711;47.158;7.346;2023-05-18T00:07:35;8.30;99.90
45983;DHT22;31711;47.158;7.346;2023-05-18T00:10:02;8.30;99.90
45983;DHT22;31711;47.158;7.346;2023-05-18T00:12:28;8.20;99.90
45983;DHT22;31711;47.158;7.346;2023-05-18T00:14:54;8.20;99.90
45983;DHT22;31711;47.158;7.346;2023-05-18T00:17:20;8.20;99.90
45983;DHT22;31711;47.158;7.346;2023-05-18T00:19:46;8.20;99.90
45983;DHT22;31711;47.158;7.346;2023-05-18T00:22:14;8.30;99.90
45983;DHT22;31711;47.158;7.346;2023-05-18T00:24:45;8.20;99.90
45983;DHT22;31711;47.158;7.346;2023-05-18T00:27:12;8.20;99.90
45983;DHT22;31711;47.158;7.346;2023-05-18T00:29:38;8.20;99.90
45983;DHT22;31711;47.158;7.346;2023-05-18T00:32:04;8.20;99.90
45983;DHT22;31711;47.158;7.346;2023-05-18T00:34:30;8.10;99.90
45983;DHT22;31711;47.158;7.346;2023-05-18T00:36:56;8.10;99.90
45983;DHT22;31711;47.158;7.346;2023-05-18T00:39:22;8.10;99.90
45983;DHT22;31711;47.158;7.346;2023-05-18T00:41:48;8.10;99.90
45983;DHT22;31711;47.158;7.346;2023-05-18T00:44:14;8.10;99.90
45983;DHT22;31711;47.158;7.346;2023-05-18T00:46:40;8.10;99.90
45983;DHT22;31711;47.158;7.346;2023-05-18T00:49:09;8.00;99.90
45983;DHT22;31711;47.158;7.346;2023-05-18T00:51:36;8.00;99.90
45983;DHT22;31711;47.158;7.346;2023-05-18T00:54:03;8.00;99.90
45983;DHT22;31711;47.158;7.346;2023-05-18T00:56:31;8.00;99.90
45983;DHT22;31711;47.158;7.346;2023-05-18T00:59:00;8.00;99.90
45983;DHT22;31711;47.158;7.346;2023-05-18T01:01:29;7.90;99.90
45983;DHT22;31711;47.158;7.346;2023-05-18T01:03:59;7.90;99.90
45983;DHT22;31711;47.158;7.346;2023-05-18T01:06:28;8.00;99.90
45983;DHT22;31711;47.158;7.346;2023-05-18T01:08:59;7.90;99.90
45983;DHT22;31711;47.158;7.346;2023-05-18T01:11:59;7.80;99.90
45983;DHT22;31711;47.158;7.346;2023-05-18T01:14:51;7.80;99.90
45983;DHT22;31711;47.158;7.346;2023-05-18T01:20:36;7.70;99.90
45983;DHT22;31711;47.158;7.346;2023-05-18T01:28:31;7.70;99.90
45983;DHT22;31711;47.158;7.346;2023-05-18T01:30:58;7.60;99.90
45983;DHT22;31711;47.158;7.346;2023-05-18T01:33:25;7.50;99.90
45983;DHT22;31711;47.158;7.346;2023-05-18T01:35:51;7.50;99.90
45983;DHT22;31711;47.158;7.346;2023-05-18T01:38:19;7.50;99.90
45983;DHT22;31711;47.158;7.346;2023-05-18T01:52:23;7.50;99.90
45983;DHT22;31711;47.158;7.346;2023-05-18T01:54:54;7.60;99.90
45983;DHT22;31711;47.158;7.346;2023-05-18T01:57:24;7.60;99.90
45983;DHT22;31711;47.158;7.346;2023-05-18T01:59:50;7.70;99.90
45983;DHT22;31711;47.158;7.346;2023-05-18T02:02:16;7.70;99.90
45983;DHT22;31711;47.158;7.346;2023-05-18T02:04:42;7.70;99.90
45983;DHT22;31711;47.158;7.346;2023-05-18T02:07:08;7.80;99.90
45983;DHT22;31711;47.158;7.346;2023-05-18T02:09:34;7.80;99.90
45983;DHT22;31711;47.158;7.346;2023-05-18T02:12:00;7.80;99.90
45983;DHT22;31711;47.158;7.346;2023-05-18T02:14:27;7.80;99.90
45983;DHT22;31711;47.158;7.346;2023-05-18T02:16:53;7.80;99.90
45983;DHT22;31711;47.158;7.346;2023-05-18T02:19:19;7.70;99.90
45983;DHT22;31711;47.158;7.346;2023-05-18T02:21:45;7.70;99.90
45983;DHT22;31711;47.158;7.346;2023-05-18T02:24:11;7.70;99.90
45983;DHT22;31711;47.158;7.346;2023-05-18T02:26:38;7.70;99.90
45983;DHT22;31711;47.158;7.346;2023-05-18T02:29:04;7.70;99.90
45983;DHT22;31711;47.158;7.346;2023-05-18T02:31:31;7.60;99.90
45983;DHT22;31711;47.158;7.346;2023-05-18T02:33:57;7.50;99.90
45983;DHT22;31711;47.158;7.346;2023-05-18T02:36:23;7.50;99.90
45983;DHT22;31711;47.158;7.346;2023-05-18T02:38:49;7.40;99.90
45983;DHT22;31711;47.158;7.346;2023-05-18T02:41:15;7.40;99.90
45983;DHT22;31711;47.158;7.346;2023-05-18T02:43:41;7.40;99.90
45983;DHT22;31711;47.158;7.346;2023-05-18T02:46:07;7.40;99.90
45983;DHT22;31711;47.158;7.346;2023-05-18T02:48:33;7.40;99.90
45983;DHT22;31711;47.158;7.346;2023-05-18T02:50:59;7.30;99.90
45983;DHT22;31711;47.158;7.346;2023-05-18T02:53:25;7.30;99.90
45983;DHT22;31711;47.158;7.346;2023-05-18T02:55:54;7.20;99.90
45983;DHT22;31711;47.158;7.346;2023-05-18T02:58:23;7.20;99.90
45983;DHT22;31711;47.158;7.346;2023-05-18T03:00:51;7.20;99.90
45983;DHT22;31711;47.158;7.346;2023-05-18T03:03:20;7.20;99.90
45983;DHT22;31711;47.158;7.346;2023-05-18T03:05:46;7.20;99.90
45983;DHT22;31711;47.158;7.346;2023-05-18T03:08:12;7.20;99.90
45983;DHT22;31711;47.158;7.346;2023-05-18T03:10:38;7.20;99.90
45983;DHT22;31711;47.158;7.346;2023-05-18T03:13:05;7.20;99.90
45983;DHT22;31711;47.158;7.346;2023-05-18T03:15:31;7.30;99.90
45983;DHT22;31711;47.158;7.346;2023-05-18T03:17:57;7.40;99.90
45983;DHT22;31711;47.158;7.346;2023-05-18T03:20:25;7.40;99.90
45983;DHT22;31711;47.158;7.346;2023-05-18T03:22:52;7.40;99.90
45983;DHT22;31711;47.158;7.346;2023-05-18T03:25:18;7.50;99.90
45983;DHT22;31711;47.158;7.346;2023-05-18T03:27:44;7.50;99.90
45983;DHT22;31711;47.158;7.346;2023-05-18T03:30:10;7.50;99.90
45983;DHT22;31711;47.158;7.346;2023-05-18T03:32:37;7.40;99.90
45983;DHT22;31711;47.158;7.346;2023-05-18T03:35:03;7.40;99.90
45983;DHT22;31711;47.158;7.346;2023-05-18T03:37:30;7.50;99.90
45983;DHT22;31711;47.158;7.346;2023-05-18T03:40:11;7.50;99.90
45983;DHT22;31711;47.158;7.346;2023-05-18T03:42:38;7.50;99.90
45983;DHT22;31711;47.158;7.346;2023-05-18T03:45:05;7.50;99.90
45983;DHT22;31711;47.158;7.346;2023-05-18T03:47:31;7.50;99.90
45983;DHT22;31711;47.158;7.346;2023-05-18T03:49:58;7.50;99.90
45983;DHT22;31711;47.158;7.346;2023-05-18T03:52:24;7.60;99.90
45983;DHT22;31711;47.158;7.346;2023-05-18T03:54:50;7.60;99.90
45983;DHT22;31711;47.158;7.346;2023-05-18T03:57:16;7.60;99.90
45983;DHT22;31711;47.158;7.346;2023-05-18T03:59:44;7.70;99.90
45983;DHT22;31711;47.158;7.346;2023-05-18T04:02:10;7.70;99.90
45983;DHT22;31711;47.158;7.346;2023-05-18T04:04:37;7.70;99.90
45983;DHT22;31711;47.158;7.346;2023-05-18T04:07:09;7.60;99.90
45983;DHT22;31711;47.158;7.346;2023-05-18T04:09:35;7.60;99.90
45983;DHT22;31711;47.158;7.346;2023-05-18T04:12:01;7.60;99.90
45983;DHT22;31711;47.158;7.346;2023-05-18T04:14:30;7.70;99.90
45983;DHT22;31711;47.158;7.346;2023-05-18T04:17:00;7.70;99.90
45983;DHT22;31711;47.158;7.346;2023-05-18T04:19:33;7.70;99.90
45983;DHT22;31711;47.158;7.346;2023-05-18T04:21:59;7.80;99.90
45983;DHT22;31711;47.158;7.346;2023-05-18T04:24:30;7.80;99.90
45983;DHT22;31711;47.158;7.346;2023-05-18T04:26:58;7.90;99.90
45983;DHT22;31711;47.158;7.346;2023-05-18T04:29:27;7.90;99.90
45983;DHT22;31711;47.158;7.346;2023-05-18T04:31:56;7.90;99.90
45983;DHT22;31711;47.158;7.346;2023-05-18T04:34:29;7.90;99.90
45983;DHT22;31711;47.158;7.346;2023-05-18T04:36:56;8.00;99.90
45983;DHT22;31711;47.158;7.346;2023-05-18T04:39:25;8.00;99.90
45983;DHT22;31711;47.158;7.346;2023-05-18T04:41:52;8.00;99.90
45983;DHT22;31711;47.158;7.346;2023-05-18T04:44:28;8.00;99.90
45983;DHT22;31711;47.158;7.346;2023-05-18T04:46:54;8.00;99.90
45983;DHT22;31711;47.158;7.346;2023-05-18T04:49:21;8.00;99.90
45983;DHT22;31711;47.158;7.346;2023-05-18T04:51:54;8.10;99.90
45983;DHT22;31711;47.158;7.346;2023-05-18T04:54:22;8.10;99.90
45983;DHT22;31711;47.158;7.346;2023-05-18T04:56:49;8.10;99.90
45983;DHT22;31711;47.158;7.346;2023-05-18T04:59:15;8.20;99.90
45983;DHT22;31711;47.158;7.346;2023-05-18T05:01:42;8.20;99.90
45983;DHT22;31711;47.158;7.346;2023-05-18T05:04:08;8.30;99.90
45983;DHT22;31711;47.158;7.346;2023-05-18T05:06:34;8.30;99.90
45983;DHT22;31711;47.158;7.346;2023-05-18T05:09:00;8.40;99.90
45983;DHT22;31711;47.158;7.346;2023-05-18T05:11:26;8.50;99.90
45983;DHT22;31711;47.158;7.346;2023-05-18T05:13:52;8.60;99.90
45983;DHT22;31711;47.158;7.346;2023-05-18T05:16:18;8.60;99.90
45983;DHT22;31711;47.158;7.346;2023-05-18T05:18:44;8.70;99.90
45983;DHT22;31711;47.158;7.346;2023-05-18T05:21:10;8.90;99.90
45983;DHT22;31711;47.158;7.346;2023-05-18T05:23:36;8.90;99.90
45983;DHT22;31711;47.158;7.346;2023-05-18T05:26:02;8.90;99.90
45983;DHT22;31711;47.158;7.346;2023-05-18T05:28:28;9.00;99.90
45983;DHT22;31711;47.158;7.346;2023-05-18T05:30:54;9.10;99.90
45983;DHT22;31711;47.158;7.346;2023-05-18T05:33:20;9.10;99.90
45983;DHT22;31711;47.158;7.346;2023-05-18T05:35:46;9.30;99.90
45983;DHT22;31711;47.158;7.346;2023-05-18T05:38:12;9.40;99.90
45983;DHT22;31711;47.158;7.346;2023-05-18T05:40:38;9.40;99.90
45983;DHT22;31711;47.158;7.346;2023-05-18T05:43:05;9.40;99.90
45983;DHT22;31711;47.158;7.346;2023-05-18T05:45:31;9.50;99.90
45983;DHT22;31711;47.158;7.346;2023-05-18T05:47:57;9.60;99.90
45983;DHT22;31711;47.158;7.346;2023-05-18T05:50:23;9.70;99.90
45983;DHT22;31711;47.158;7.346;2023-05-18T05:52:49;9.60;99.90
45983;DHT22;31711;47.158;7.346;2023-05-18T05:55:15;9.70;99.90
45983;DHT22;31711;47.158;7.346;2023-05-18T05:57:41;9.90;99.90
45983;DHT22;31711;47.158;7.346;2023-05-18T06:00:11;9.90;99.90
45983;DHT22;31711;47.158;7.346;2023-05-18T06:02:38;10.10;99.90
45983;DHT22;31711;47.158;7.346;2023-05-18T06:05:05;10.20;99.90
45983;DHT22;31711;47.158;7.346;2023-05-18T06:07:32;10.10;99.90
45983;DHT22;31711;47.158;7.346;2023-05-18T06:09:58;10.30;99.90
45983;DHT22;31711;47.158;7.346;2023-05-18T06:12:24;10.40;99.90
45983;DHT22;31711;47.158;7.346;2023-05-18T06:14:50;10.40;99.90
45983;DHT22;31711;47.158;7.346;2023-05-18T06:17:19;10.40;99.90
45983;DHT22;31711;47.158;7.346;2023-05-18T06:19:45;10.50;99.90
45983;DHT22;31711;47.158;7.346;2023-05-18T06:22:11;10.50;99.90
45983;DHT22;31711;47.158;7.346;2023-05-18T06:24:37;10.60;99.90
45983;DHT22;31711;47.158;7.346;2023-05-18T06:27:03;10.70;99.90
45983;DHT22;31711;47.158;7.346;2023-05-18T06:29:29;10.70;99.90
45983;DHT22;31711;47.158;7.346;2023-05-18T06:31:56;10.80;99.90
45983;DHT22;31711;47.158;7.346;2023-05-18T06:34:22;11.00;99.90
45983;DHT22;31711;47.158;7.346;2023-05-18T06:36:48;10.90;99.90
45983;DHT22;31711;47.158;7.346;2023-05-18T06:39:14;11.00;99.90
45983;DHT22;31711;47.158;7.346;2023-05-18T06:41:40;10.90;99.90
45983;DHT22;31711;47.158;7.346;2023-05-18T06:44:06;11.10;99.90
45983;DHT22;31711;47.158;7.346;2023-05-18T06:46:32;11.10;99.90
45983;DHT22;31711;47.158;7.346;2023-05-18T06:48:58;11.00;99.90
45983;DHT22;31711;47.158;7.346;2023-05-18T06:51:24;10.90;99.90
45983;DHT22;31711;47.158;7.346;2023-05-18T06:53:49;11.10;99.90
45983;DHT22;31711;47.158;7.346;2023-05-18T06:56:16;11.00;99.90
45983;DHT22;31711;47.158;7.346;2023-05-18T06:58:43;11.00;99.90
45983;DHT22;31711;47.158;7.346;2023-05-18T07:01:09;11.10;99.90
45983;DHT22;31711;47.158;7.346;2023-05-18T07:03:36;11.20;99.90
45983;DHT22;31711;47.158;7.346;2023-05-18T07:06:03;11.30;99.90
45983;DHT22;31711;47.158;7.346;2023-05-18T07:08:32;11.30;99.90
45983;DHT22;31711;47.158;7.346;2023-05-18T07:10:58;11.30;99.90
45983;DHT22;31711;47.158;7.346;2023-05-18T07:13:26;11.50;99.90
45983;DHT22;31711;47.158;7.346;2023-05-18T07:15:52;11.60;99.90
45983;DHT22;31711;47.158;7.346;2023-05-18T07:18:18;11.60;99.90
45983;DHT22;31711;47.158;7.346;2023-05-18T07:20:44;11.70;99.90
45983;DHT22;31711;47.158;7.346;2023-05-18T07:23:10;11.50;99.90
45983;DHT22;31711;47.158;7.346;2023-05-18T07:25:36;11.50;99.90
45983;DHT22;31711;47.158;7.346;2023-05-18T07:28:02;11.50;99.90
45983;DHT22;31711;47.158;7.346;2023-05-18T07:30:28;11.60;99.90
45983;DHT22;31711;47.158;7.346;2023-05-18T07:32:54;11.60;99.90
45983;DHT22;31711;47.158;7.346;2023-05-18T07:35:21;11.60;99.90
45983;DHT22;31711;47.158;7.346;2023-05-18T07:37:49;11.70;99.90
45983;DHT22;31711;47.158;7.346;2023-05-18T07:40:17;11.70;99.90
45983;DHT22;31711;47.158;7.346;2023-05-18T07:42:43;11.60;99.90
45983;DHT22;31711;47.158;7.346;2023-05-18T07:45:09;11.50;99.90
45983;DHT22;31711;47.158;7.346;2023-05-18T07:47:36;11.60;99.90
45983;DHT22;31711;47.158;7.346;2023-05-18T07:50:02;11.90;99.90
45983;DHT22;31711;47.158;7.346;2023-05-18T07:52:28;12.00;99.90
45983;DHT22;31711;47.158;7.346;2023-05-18T07:54:54;12.30;99.90
45983;DHT22;31711;47.158;7.346;2023-05-18T07:57:22;12.40;99.90
45983;DHT22;31711;47.158;7.346;2023-05-18T07:59:48;12.40;99.90
45983;DHT22;31711;47.158;7.346;2023-05-18T08:02:14;12.30;99.90
45983;DHT22;31711;47.158;7.346;2023-05-18T08:04:41;12.50;99.90
45983;DHT22;31711;47.158;7.346;2023-05-18T08:07:07;12.60;99.90
45983;DHT22;31711;47.158;7.346;2023-05-18T08:09:35;12.50;99.90
45983;DHT22;31711;47.158;7.346;2023-05-18T08:12:01;12.50;99.90
45983;DHT22;31711;47.158;7.346;2023-05-18T08:14:27;12.50;99.90
45983;DHT22;31711;47.158;7.346;2023-05-18T08:16:53;12.80;99.90
45983;DHT22;31711;47.158;7.346;2023-05-18T08:19:19;13.10;99.90
45983;DHT22;31711;47.158;7.346;2023-05-18T08:21:45;13.10;99.90
45983;DHT22;31711;47.158;7.346;2023-05-18T08:24:11;13.10;99.90
45983;DHT22;31711;47.158;7.346;2023-05-18T08:26:37;13.10;99.90
45983;DHT22;31711;47.158;7.346;2023-05-18T08:29:03;13.30;99.90
45983;DHT22;31711;47.158;7.346;2023-05-18T08:31:35;13.30;99.90
45983;DHT22;31711;47.158;7.346;2023-05-18T08:34:03;13.20;99.90
45983;DHT22;31711;47.158;7.346;2023-05-18T08:36:30;13.40;99.90
45983;DHT22;31711;47.158;7.346;2023-05-18T08:38:56;13.60;99.90
45983;DHT22;31711;47.158;7.346;2023-05-18T08:41:31;13.50;99.90
45983;DHT22;31711;47.158;7.346;2023-05-18T08:44:10;13.50;99.90
45983;DHT22;31711;47.158;7.346;2023-05-18T08:46:40;13.70;99.90
45983;DHT22;31711;47.158;7.346;2023-05-18T08:49:11;14.00;99.90
45983;DHT22;31711;47.158;7.346;2023-05-18T08:51:40;13.90;99.90
45983;DHT22;31711;47.158;7.346;2023-05-18T08:54:07;13.90;99.90
45983;DHT22;31711;47.158;7.346;2023-05-18T08:56:35;13.70;99.90
45983;DHT22;31711;47.158;7.346;2023-05-18T08:59:03;14.00;99.90
45983;DHT22;31711;47.158;7.346;2023-05-18T09:01:33;14.10;99.90
45983;DHT22;31711;47.158;7.346;2023-05-18T09:03:59;14.10;99.90
45983;DHT22;31711;47.158;7.346;2023-05-18T09:06:26;14.00;99.90
45983;DHT22;31711;47.158;7.346;2023-05-18T09:08:55;14.10;99.90
45983;DHT22;31711;47.158;7.346;2023-05-18T09:11:25;14.30;99.90
45983;DHT22;31711;47.158;7.346;2023-05-18T09:13:52;14.50;99.90
45983;DHT22;31711;47.158;7.346;2023-05-18T09:16:19;14.70;99.90
45983;DHT22;31711;47.158;7.346;2023-05-18T09:18:45;14.90;99.90
45983;DHT22;31711;47.158;7.346;2023-05-18T09:21:11;14.70;99.90
45983;DHT22;31711;47.158;7.346;2023-05-18T09:23:38;15.10;99.90
45983;DHT22;31711;47.158;7.346;2023-05-18T09:26:05;15.30;99.90
45983;DHT22;31711;47.158;7.346;2023-05-18T09:28:38;15.50;99.90
45983;DHT22;31711;47.158;7.346;2023-05-18T09:31:06;15.60;99.90
45983;DHT22;31711;47.158;7.346;2023-05-18T09:33:38;15.30;99.90
45983;DHT22;31711;47.158;7.346;2023-05-18T09:36:05;15.00;99.90
45983;DHT22;31711;47.158;7.346;2023-05-18T09:38:36;15.30;99.90
45983;DHT22;31711;47.158;7.346;2023-05-18T09:41:03;15.40;99.90
45983;DHT22;31711;47.158;7.346;2023-05-18T09:43:29;15.30;99.90
45983;DHT22;31711;47.158;7.346;2023-05-18T09:45:54;15.30;99.90
45983;DHT22;31711;47.158;7.346;2023-05-18T09:48:20;15.80;99.90
45983;DHT22;31711;47.158;7.346;2023-05-18T09:50:48;15.80;99.90
45983;DHT22;31711;47.158;7.346;2023-05-18T09:53:14;16.00;99.90
45983;DHT22;31711;47.158;7.346;2023-05-18T09:55:45;16.30;99.90
45983;DHT22;31711;47.158;7.346;2023-05-18T09:58:11;16.30;99.90
45983;DHT22;31711;47.158;7.346;2023-05-18T10:00:41;16.30;99.90
45983;DHT22;31711;47.158;7.346;2023-05-18T10:03:22;16.10;99.90
45983;DHT22;31711;47.158;7.346;2023-05-18T10:05:48;15.70;99.90
45983;DHT22;31711;47.158;7.346;2023-05-18T10:08:15;15.70;99.90
45983;DHT22;31711;47.158;7.346;2023-05-18T10:10:46;15.80;99.90
45983;DHT22;31711;47.158;7.346;2023-05-18T10:13:14;15.90;99.90
45983;DHT22;31711;47.158;7.346;2023-05-18T10:15:51;15.60;99.90
45983;DHT22;31711;47.158;7.346;2023-05-18T10:18:24;15.50;99.90
45983;DHT22;31711;47.158;7.346;2023-05-18T10:20:52;15.20;99.90
45983;DHT22;31711;47.158;7.346;2023-05-18T10:23:19;15.10;99.90
45983;DHT22;31711;47.158;7.346;2023-05-18T10:25:47;15.10;99.90
45983;DHT22;31711;47.158;7.346;2023-05-18T10:28:48;15.10;99.90
45983;DHT22;31711;47.158;7.346;2023-05-18T10:31:14;15.10;99.90
45983;DHT22;31711;47.158;7.346;2023-05-18T10:33:43;14.90;99.90
45983;DHT22;31711;47.158;7.346;2023-05-18T10:36:10;14.90;99.90
45983;DHT22;31711;47.158;7.346;2023-05-18T10:38:37;14.80;99.90
45983;DHT22;31711;47.158;7.346;2023-05-18T10:41:08;14.60;99.90
45983;DHT22;31711;47.158;7.346;2023-05-18T10:43:36;14.60;99.90
45983;DHT22;31711;47.158;7.346;2023-05-18T10:46:04;14.60;99.90
45983;DHT22;31711;47.158;7.346;2023-05-18T10:48:37;14.60;99.90
45983;DHT22;31711;47.158;7.346;2023-05-18T10:51:06;14.50;99.90
45983;DHT22;31711;47.158;7.346;2023-05-18T10:53:32;14.50;99.90
45983;DHT22;31711;47.158;7.346;2023-05-18T10:55:58;14.40;99.90
45983;DHT22;31711;47.158;7.346;2023-05-18T10:58:26;14.20;99.90
45983;DHT22;31711;47.158;7.346;2023-05-18T11:00:56;14.30;99.90
45983;DHT22;31711;47.158;7.346;2023-05-18T11:03:24;14.50;99.90
45983;DHT22;31711;47.158;7.346;2023-05-18T11:08:34;14.80;99.90
45983;DHT22;31711;47.158;7.346;2023-05-18T11:11:06;14.70;99.90
45983;DHT22;31711;47.158;7.346;2023-05-18T11:13:34;14.70;99.90
45983;DHT22;31711;47.158;7.346;2023-05-18T11:16:01;14.50;99.90
45983;DHT22;31711;47.158;7.346;2023-05-18T11:18:50;14.40;99.90
45983;DHT22;31711;47.158;7.346;2023-05-18T11:24:23;14.40;99.90
45983;DHT22;31711;47.158;7.346;2023-05-18T11:26:54;14.20;99.90
45983;DHT22;31711;47.158;7.346;2023-05-18T11:29:30;14.20;99.90
45983;DHT22;31711;47.158;7.346;2023-05-18T11:31:57;14.30;99.90
45983;DHT22;31711;47.158;7.346;2023-05-18T11:34:40;14.40;99.90
45983;DHT22;31711;47.158;7.346;2023-05-18T11:40:09;14.30;99.90
45983;DHT22;31711;47.158;7.346;2023-05-18T11:42:36;14.50;99.90
45983;DHT22;31711;47.158;7.346;2023-05-18T11:45:09;14.60;99.90
45983;DHT22;31711;47.158;7.346;2023-05-18T11:47:39;14.80;99.90
45983;DHT22;31711;47.158;7.346;2023-05-18T11:50:06;14.80;99.90
45983;DHT22;31711;47.158;7.346;2023-05-18T11:52:44;15.00;99.90
45983;DHT22;31711;47.158;7.346;2023-05-18T11:55:17;15.00;99.90
45983;DHT22;31711;47.158;7.346;2023-05-18T11:57:44;15.00;99.90
45983;DHT22;31711;47.158;7.346;2023-05-18T12:00:12;14.90;99.90
45983;DHT22;31711;47.158;7.346;2023-05-18T12:02:45;14.80;99.90
45983;DHT22;31711;47.158;7.346;2023-05-18T12:05:12;14.80;99.90
45983;DHT22;31711;47.158;7.346;2023-05-18T12:07:39;14.80;99.90
45983;DHT22;31711;47.158;7.346;2023-05-18T12:10:10;14.90;99.90
45983;DHT22;31711;47.158;7.346;2023-05-18T12:12:36;14.70;99.90
45983;DHT22;31711;47.158;7.346;2023-05-18T12:15:04;14.70;99.90
45983;DHT22;31711;47.158;7.346;2023-05-18T12:17:42;14.30;99.90
45983;DHT22;31711;47.158;7.346;2023-05-18T12:20:10;14.30;99.90
45983;DHT22;31711;47.158;7.346;2023-05-18T12:22:41;14.40;99.90
45983;DHT22;31711;47.158;7.346;2023-05-18T12:25:07;14.30;99.90
45983;DHT22;31711;47.158;7.346;2023-05-18T12:27:41;14.30;99.90
45983;DHT22;31711;47.158;7.346;2023-05-18T12:30:09;14.30;99.90
45983;DHT22;31711;47.158;7.346;2023-05-18T12:32:51;14.40;99.90
45983;DHT22;31711;47.158;7.346;2023-05-18T12:35:25;14.40;99.90
45983;DHT22;31711;47.158;7.346;2023-05-18T12:37:52;14.60;99.90
45983;DHT22;31711;47.158;7.346;2023-05-18T12:40:20;14.60;99.90
45983;DHT22;31711;47.158;7.346;2023-05-18T12:45:22;14.70;99.90
45983;DHT22;31711;47.158;7.346;2023-05-18T12:47:49;14.60;99.90
45983;DHT22;31711;47.158;7.346;2023-05-18T12:50:23;14.80;99.90
45983;DHT22;31711;47.158;7.346;2023-05-18T12:52:51;14.80;99.90
45983;DHT22;31711;47.158;7.346;2023-05-18T12:55:18;14.80;99.90
45983;DHT22;31711;47.158;7.346;2023-05-18T12:58:11;14.70;99.90
45983;DHT22;31711;47.158;7.346;2023-05-18T13:00:45;14.70;99.90
45983;DHT22;31711;47.158;7.346;2023-05-18T13:03:14;14.70;99.90
45983;DHT22;31711;47.158;7.346;2023-05-18T13:05:44;14.80;99.90
45983;DHT22;31711;47.158;7.346;2023-05-18T13:08:14;14.70;99.90
45983;DHT22;31711;47.158;7.346;2023-05-18T13:10:43;14.60;99.90
45983;DHT22;31711;47.158;7.346;2023-05-18T13:13:13;14.60;99.90
45983;DHT22;31711;47.158;7.346;2023-05-18T13:15:39;14.60;99.90
45983;DHT22;31711;47.158;7.346;2023-05-18T13:18:07;14.50;99.90
45983;DHT22;31711;47.158;7.346;2023-05-18T13:23:11;14.70;99.90
45983;DHT22;31711;47.158;7.346;2023-05-18T13:25:42;14.60;99.90
45983;DHT22;31711;47.158;7.346;2023-05-18T13:28:10;14.70;99.90
45983;DHT22;31711;47.158;7.346;2023-05-18T13:30:37;14.80;99.90
45983;DHT22;31711;47.158;7.346;2023-05-18T13:33:04;14.80;99.90
45983;DHT22;31711;47.158;7.346;2023-05-18T13:35:30;15.00;99.90
45983;DHT22;31711;47.158;7.346;2023-05-18T13:37:56;14.90;99.90
45983;DHT22;31711;47.158;7.346;2023-05-18T13:40:22;15.20;99.90
45983;DHT22;31711;47.158;7.346;2023-05-18T13:42:50;15.40;99.90
45983;DHT22;31711;47.158;7.346;2023-05-18T13:45:16;15.50;99.90
45983;DHT22;31711;47.158;7.346;2023-05-18T13:47:42;15.50;99.90
45983;DHT22;31711;47.158;7.346;2023-05-18T13:50:10;15.30;99.90
45983;DHT22;31711;47.158;7.346;2023-05-18T13:52:36;15.30;99.90
45983;DHT22;31711;47.158;7.346;2023-05-18T13:55:06;15.40;99.90
45983;DHT22;31711;47.158;7.346;2023-05-18T13:57:33;15.70;99.90
45983;DHT22;31711;47.158;7.346;2023-05-18T13:59:59;15.70;99.90
45983;DHT22;31711;47.158;7.346;2023-05-18T14:02:31;16.00;99.90
45983;DHT22;31711;47.158;7.346;2023-05-18T14:04:57;16.10;99.90
45983;DHT22;31711;47.158;7.346;2023-05-18T14:07:23;16.30;99.90
45983;DHT22;31711;47.158;7.346;2023-05-18T14:09:49;16.50;99.90
45983;DHT22;31711;47.158;7.346;2023-05-18T14:12:15;16.60;99.90
45983;DHT22;31711;47.158;7.346;2023-05-18T14:14:41;16.60;99.90
45983;DHT22;31711;47.158;7.346;2023-05-18T14:17:08;16.70;99.90
45983;DHT22;31711;47.158;7.346;2023-05-18T14:19:34;16.60;99.90
45983;DHT22;31711;47.158;7.346;2023-05-18T14:22:01;16.10;99.90
45983;DHT22;31711;47.158;7.346;2023-05-18T14:24:27;16.30;99.90
45983;DHT22;31711;47.158;7.346;2023-05-18T14:26:53;16.00;99.90
45983;DHT22;31711;47.158;7.346;2023-05-18T14:29:19;16.00;99.90
45983;DHT22;31711;47.158;7.346;2023-05-18T14:31:46;16.20;99.90
45983;DHT22;31711;47.158;7.346;2023-05-18T14:34:12;16.20;99.90
45983;DHT22;31711;47.158;7.346;2023-05-18T14:36:40;16.00;99.90
45983;DHT22;31711;47.158;7.346;2023-05-18T14:39:07;15.90;99.90
45983;DHT22;31711;47.158;7.346;2023-05-18T14:41:34;15.90;99.90
45983;DHT22;31711;47.158;7.346;2023-05-18T14:44:00;16.00;99.90
45983;DHT22;31711;47.158;7.346;2023-05-18T14:46:29;15.90;99.90
45983;DHT22;31711;47.158;7.346;2023-05-18T14:48:55;15.90;99.90
45983;DHT22;31711;47.158;7.346;2023-05-18T14:51:21;15.90;99.90
45983;DHT22;31711;47.158;7.346;2023-05-18T14:53:49;16.00;99.90
45983;DHT22;31711;47.158;7.346;2023-05-18T14:56:15;15.60;99.90
45983;DHT22;31711;47.158;7.346;2023-05-18T14:58:41;15.70;99.90
45983;DHT22;31711;47.158;7.346;2023-05-18T15:01:07;15.80;99.90
45983;DHT22;31711;47.158;7.346;2023-05-18T15:03:33;15.60;99.90
45983;DHT22;31711;47.158;7.346;2023-05-18T15:05:59;15.50;99.90
45983;DHT22;31711;47.158;7.346;2023-05-18T15:08:25;15.50;99.90
45983;DHT22;31711;47.158;7.346;2023-05-18T15:10:51;15.50;99.90
45983;DHT22;31711;47.158;7.346;2023-05-18T15:13:17;15.40;99.90
45983;DHT22;31711;47.158;7.346;2023-05-18T15:15:43;15.30;99.90
45983;DHT22;31711;47.158;7.346;2023-05-18T15:18:09;15.30;99.90
45983;DHT22;31711;47.158;7.346;2023-05-18T15:20:37;15.40;99.90
45983;DHT22;31711;47.158;7.346;2023-05-18T15:23:04;15.30;99.90
45983;DHT22;31711;47.158;7.346;2023-05-18T15:25:30;15.30;99.90
45983;DHT22;31711;47.158;7.346;2023-05-18T15:27:57;15.40;99.90
45983;DHT22;31711;47.158;7.346;2023-05-18T15:30:23;15.40;99.90
45983;DHT22;31711;47.158;7.346;2023-05-18T15:32:48;15.50;99.90
45983;DHT22;31711;47.158;7.346;2023-05-18T15:35:14;15.60;99.90
45983;DHT22;31711;47.158;7.346;2023-05-18T15:37:41;15.60;99.90
45983;DHT22;31711;47.158;7.346;2023-05-18T15:40:07;15.50;99.90
45983;DHT22;31711;47.158;7.346;2023-05-18T15:42:33;15.50;99.90
45983;DHT22;31711;47.158;7.346;2023-05-18T15:44:59;15.60;99.90
45983;DHT22;31711;47.158;7.346;2023-05-18T15:47:25;15.50;99.90
45983;DHT22;31711;47.158;7.346;2023-05-18T15:49:51;15.60;99.90
45983;DHT22;31711;47.158;7.346;2023-05-18T15:52:17;15.70;99.90
45983;DHT22;31711;47.158;7.346;2023-05-18T15:54:43;15.50;99.90
45983;DHT22;31711;47.158;7.346;2023-05-18T15:57:09;15.50;99.90
45983;DHT22;31711;47.158;7.346;2023-05-18T15:59:35;15.60;99.90
45983;DHT22;31711;47.158;7.346;2023-05-18T16:02:01;15.40;99.90
45983;DHT22;31711;47.158;7.346;2023-05-18T16:04:27;15.40;99.90
45983;DHT22;31711;47.158;7.346;2023-05-18T16:06:53;15.60;99.90
45983;DHT22;31711;47.158;7.346;2023-05-18T16:09:19;15.50;99.90
45983;DHT22;31711;47.158;7.346;2023-05-18T16:11:45;15.50;99.90
45983;DHT22;31711;47.158;7.346;2023-05-18T16:14:11;15.60;99.90